Kaitaia, New Zealand
Current Conditions -  °F | °C
As of 7:30 PM on Thursday 27 Nov 2014 (Local Time) from NZAA Reporting Station
Few Clouds Few Clouds  
Wind Chill: 63°   Ceiling: Unl
Heat Index: 63°   Visibility: 6mi
Dew Point: 54°   Wind: 16mph
Humidity: 72%   Direction: 260°W
Pressure: 29.91"   Gusts: NA
Location:  35.11°S, 173.26°E
Report Text: NZAA 270630Z AUTO 26014KT 9999 FEW024/// 17/12 Q1013 NOSIG
Loading
Personal Weather Stations






























Interactive Weather Map New forecast layout! Learn more

10-Day Weather Forecast

Advertisements
Track Severe Weather on mobile